Terminal Aerodrome Forecast
Issued by NWS Bismarck, ND

Home | Current Version | Previous Version | Graphics & Text | Print | Product List | Glossary On
Versions: 1 2 3 4 5 6 7 8 9 10 11 12 13 14 15 16 17 18 19 20 21
000
FTUS43 KBIS 261700
TAFBIS
TAF
KBIS 261726Z 2618/2718 09009KT P6SM BKN035
      TEMPO 2618/2620 BKN025
     FM270100 11006KT P6SM BKN060
     FM271100 13010KT 4SM -SN BKN015 OVC025
      TEMPO 2713/2717 2SM -SN BR SCT006 OVC010=

USA.gov is the U.S. government's official web portal to all federal, state and local government web resources and services.